Time;durP1;ratioP1;P1;durP2;ratioP2;P2;SDS_P1;SDS_P2;PMS_P1;PMS_P2;Temp;Humidity;BMP_temperature;BMP_pressure;BME280_temperature;BME280_humidity;BME280_pressure;Samples;Min_cycle;Max_cycle;Signal;HPM_P1;HPM_P2
2021/07/11 00:01:23;;;;;;;14.95;6.38;;;;;;;;;;5002274;28;20050;-57
2021/07/11 00:03:49;;;;;;;14.82;7.10;;;;;;;;;;5002893;28;20082;-56
2021/07/11 00:06:18;;;;;;;15.48;7.68;;;;;;;;;;4998708;28;20053;-56
2021/07/11 00:08:44;;;;;;;14.80;7.45;;;;;;;;;;5035213;28;20038;-58
2021/07/11 00:11:13;;;;;;;13.35;6.72;;;;;;;;;;5027733;28;20057;-57
2021/07/11 00:13:39;;;;;;;11.70;6.78;;;;;;;;;;5002741;28;20034;-58
2021/07/11 00:16:06;;;;;;;15.38;7.97;;;;;;;;;;5000104;28;20074;-58
2021/07/11 00:18:33;;;;;;;19.17;7.43;;;;;;;;;;5001813;28;20034;-58
2021/07/11 00:20:59;;;;;;;17.15;7.63;;;;;;;;;;4999094;28;20042;-58
2021/07/11 00:23:25;;;;;;;13.52;7.38;;;;;;;;;;5001987;28;20038;-57
2021/07/11 00:25:52;;;;;;;15.70;7.93;;;;;;;;;;4993036;28;20070;-57
2021/07/11 00:28:20;;;;;;;17.13;7.13;;;;;;;;;;4986498;28;20100;-56
2021/07/11 00:30:48;;;;;;;16.00;7.97;;;;;;;;;;5006373;28;20053;-56
2021/07/11 00:33:14;;;;;;;15.27;7.82;;;;;;;;;;4998568;28;20053;-57
2021/07/11 00:35:40;;;;;;;15.48;7.70;;;;;;;;;;4978986;28;20059;-57
2021/07/11 00:38:07;;;;;;;18.10;8.80;;;;;;;;;;4982257;28;20042;-57
2021/07/11 00:40:35;;;;;;;19.02;9.43;;;;;;;;;;4962897;28;20050;-58
2021/07/11 00:43:02;;;;;;;17.65;8.32;;;;;;;;;;4998084;28;20042;-57
2021/07/11 00:45:29;;;;;;;17.75;8.75;;;;;;;;;;4982317;28;20058;-55
2021/07/11 00:47:56;;;;;;;21.17;8.90;;;;;;;;;;4993618;28;20141;-58
2021/07/11 00:50:22;;;;;;;16.80;8.68;;;;;;;;;;4981793;28;20034;-58
2021/07/11 00:52:49;;;;;;;18.27;9.00;;;;;;;;;;4964958;28;20043;-56
2021/07/11 00:55:16;;;;;;;13.10;7.57;;;;;;;;;;4977996;28;20042;-57
2021/07/11 00:57:42;;;;;;;16.40;8.93;;;;;;;;;;4981536;28;20042;-57
2021/07/11 01:00:10;;;;;;;18.45;8.45;;;;;;;;;;4983651;28;20133;-56
2021/07/11 01:02:44;;;;;;;15.70;8.23;;;;;;;;;;4980830;28;20120;-57
2021/07/11 01:05:12;;;;;;;16.70;8.10;;;;;;;;;;4984049;28;20057;-56
2021/07/11 01:07:44;;;;;;;15.52;8.15;;;;;;;;;;4997799;28;20082;-54
2021/07/11 01:10:13;;;;;;;16.88;8.55;;;;;;;;;;4983166;28;20053;-55
2021/07/11 01:12:43;;;;;;;14.82;8.00;;;;;;;;;;4980745;28;20050;-55
2021/07/11 01:15:10;;;;;;;17.15;8.57;;;;;;;;;;4984032;28;20039;-56
2021/07/11 01:17:37;;;;;;;17.00;8.32;;;;;;;;;;4979835;28;20058;-55
2021/07/11 01:20:11;;;;;;;18.60;9.38;;;;;;;;;;5000022;28;20055;-57
2021/07/11 01:22:42;;;;;;;17.95;8.35;;;;;;;;;;4980675;28;20062;-56
2021/07/11 01:25:11;;;;;;;17.65;8.32;;;;;;;;;;4984938;28;20054;-56
2021/07/11 01:27:40;;;;;;;16.08;8.60;;;;;;;;;;5015594;28;20050;-57
2021/07/11 01:30:06;;;;;;;;;;;;;;;;;;5005789;28;20054;-54
2021/07/11 01:32:34;;;;;;;17.77;7.78;;;;;;;;;;5000406;28;19929;-58
2021/07/11 01:35:04;;;;;;;18.23;9.20;;;;;;;;;;5003130;28;20052;-57
2021/07/11 01:37:32;;;;;;;18.77;9.23;;;;;;;;;;5004134;28;20292;-57
2021/07/11 01:39:58;;;;;;;18.77;8.85;;;;;;;;;;5005550;28;20057;-55
2021/07/11 01:42:25;;;;;;;15.35;8.05;;;;;;;;;;5004233;28;20046;-56
2021/07/11 01:44:53;;;;;;;20.88;9.27;;;;;;;;;;4997467;28;20038;-58
2021/07/11 01:47:20;;;;;;;18.70;8.73;;;;;;;;;;4984650;28;20065;-58
2021/07/11 01:49:47;;;;;;;17.38;8.80;;;;;;;;;;4981907;28;20060;-58
2021/07/11 01:52:13;;;;;;;19.67;8.70;;;;;;;;;;4985031;28;20124;-58
2021/07/11 01:54:40;;;;;;;17.58;9.13;;;;;;;;;;4981915;28;20057;-57
2021/07/11 01:57:06;;;;;;;18.75;8.65;;;;;;;;;;4985240;28;20055;-58
2021/07/11 01:59:33;;;;;;;15.75;8.85;;;;;;;;;;4981835;28;20047;-57
2021/07/11 02:02:01;;;;;;;17.00;8.50;;;;;;;;;;4996992;28;20038;-58
2021/07/11 02:04:28;;;;;;;17.08;9.20;;;;;;;;;;4998778;28;20096;-58
2021/07/11 02:06:54;;;;;;;20.95;9.10;;;;;;;;;;5004482;28;20062;-57
2021/07/11 02:09:21;;;;;;;19.88;9.35;;;;;;;;;;4999877;28;20042;-56
2021/07/11 02:11:47;;;;;;;17.60;9.27;;;;;;;;;;5004875;28;20128;-57
2021/07/11 02:14:17;;;;;;;18.67;9.93;;;;;;;;;;5000607;28;20050;-56
2021/07/11 02:16:48;;;;;;;24.05;9.65;;;;;;;;;;5002831;28;20108;-57
2021/07/11 02:19:16;;;;;;;21.95;9.93;;;;;;;;;;5002098;28;20053;-57
2021/07/11 02:21:42;;;;;;;;;;;;;;;;;;4984178;28;20055;-57
2021/07/11 02:24:09;;;;;;;17.67;8.85;;;;;;;;;;4982542;28;19997;-56
2021/07/11 02:26:36;;;;;;;17.25;8.88;;;;;;;;;;5000872;28;20042;-56
2021/07/11 02:29:04;;;;;;;17.05;9.15;;;;;;;;;;4983139;28;20063;-55
2021/07/11 02:31:35;;;;;;;19.50;9.95;;;;;;;;;;4982248;28;20045;-56
2021/07/11 02:34:02;;;;;;;20.08;10.30;;;;;;;;;;4983907;28;20042;-57
2021/07/11 02:36:31;;;;;;;19.30;9.73;;;;;;;;;;5007641;28;20046;-57
2021/07/11 02:39:01;;;;;;;21.38;10.77;;;;;;;;;;4984734;28;20121;-57
2021/07/11 02:41:30;;;;;;;19.35;9.85;;;;;;;;;;4981961;28;20050;-56
2021/07/11 02:43:58;;;;;;;18.40;10.05;;;;;;;;;;4983788;28;20066;-54
2021/07/11 02:46:27;;;;;;;20.25;11.35;;;;;;;;;;5001870;28;20043;-56
2021/07/11 02:48:54;;;;;;;20.63;9.57;;;;;;;;;;5016518;28;20124;-57
2021/07/11 02:51:23;;;;;;;20.13;9.55;;;;;;;;;;4980750;28;20035;-57
2021/07/11 02:53:52;;;;;;;17.08;9.70;;;;;;;;;;4985077;28;20038;-57
2021/07/11 02:56:19;;;;;;;18.98;10.25;;;;;;;;;;4980685;28;20046;-58
2021/07/11 02:58:47;;;;;;;18.83;9.85;;;;;;;;;;4998400;28;20057;-57
2021/07/11 03:03:49;;;;;;;20.13;10.07;;;;;;;;;;4972391;28;20061;-57
2021/07/11 03:06:17;;;;;;;20.05;9.57;;;;;;;;;;4954229;28;20061;-55
2021/07/11 03:08:44;;;;;;;16.80;9.18;;;;;;;;;;4928943;28;20081;-56
2021/07/11 03:11:12;;;;;;;18.85;10.18;;;;;;;;;;4953292;28;20039;-56
2021/07/11 03:13:40;;;;;;;19.52;9.65;;;;;;;;;;4931887;28;20044;-57
2021/07/11 03:16:07;;;;;;;20.90;9.88;;;;;;;;;;4956225;28;20065;-54
2021/07/11 03:18:35;;;;;;;18.50;9.73;;;;;;;;;;4951553;28;20066;-57
2021/07/11 03:21:03;;;;;;;22.50;10.10;;;;;;;;;;4978750;28;20047;-58
2021/07/11 03:23:30;;;;;;;23.30;10.33;;;;;;;;;;4955376;28;20107;-57
2021/07/11 03:25:57;;;;;;;19.33;10.18;;;;;;;;;;4949848;28;20112;-55
2021/07/11 03:28:25;;;;;;;19.08;9.93;;;;;;;;;;4962328;28;20137;-58
2021/07/11 03:30:53;;;;;;;19.20;9.82;;;;;;;;;;4956762;28;20066;-55
2021/07/11 03:33:20;;;;;;;22.23;10.43;;;;;;;;;;4949289;28;20043;-58
2021/07/11 03:35:49;;;;;;;20.55;9.55;;;;;;;;;;4933968;28;20048;-58
2021/07/11 03:38:18;;;;;;;20.63;9.82;;;;;;;;;;4935787;28;20060;-56
2021/07/11 03:40:46;;;;;;;25.80;10.07;;;;;;;;;;4962899;28;20067;-56
2021/07/11 03:43:14;;;;;;;20.52;10.35;;;;;;;;;;4952860;28;20039;-57
2021/07/11 03:45:43;;;;;;;19.45;9.77;;;;;;;;;;4943298;28;20042;-57
2021/07/11 03:48:11;;;;;;;19.17;10.73;;;;;;;;;;4953687;28;20056;-57
2021/07/11 03:50:38;;;;;;;;;;;;;;;;;;4962283;28;20050;-57
2021/07/11 03:53:06;;;;;;;23.88;9.68;;;;;;;;;;4939463;28;19930;-56
2021/07/11 03:55:33;;;;;;;20.25;9.40;;;;;;;;;;4945973;28;20272;-56
2021/07/11 03:58:00;;;;;;;19.20;9.43;;;;;;;;;;4938865;28;20074;-58
2021/07/11 04:00:27;;;;;;;19.20;10.43;;;;;;;;;;4953084;28;20063;-57
2021/07/11 04:02:55;;;;;;;19.40;10.23;;;;;;;;;;4961707;28;20517;-56
2021/07/11 04:05:23;;;;;;;19.08;10.02;;;;;;;;;;4981377;28;20046;-56
2021/07/11 04:07:50;;;;;;;20.02;10.27;;;;;;;;;;4982192;28;20193;-56
2021/07/11 04:10:18;;;;;;;20.20;9.88;;;;;;;;;;4981167;28;20061;-56
2021/07/11 04:12:45;;;;;;;21.33;10.15;;;;;;;;;;4982245;28;20027;-55
2021/07/11 04:15:12;;;;;;;27.52;10.90;;;;;;;;;;4980637;28;20067;-56
2021/07/11 04:17:38;;;;;;;21.50;10.07;;;;;;;;;;4982710;28;20046;-54
2021/07/11 04:20:07;;;;;;;23.50;10.18;;;;;;;;;;4979485;28;20058;-55
2021/07/11 04:22:35;;;;;;;17.65;10.10;;;;;;;;;;4963223;28;20087;-56
2021/07/11 04:25:02;;;;;;;17.48;9.88;;;;;;;;;;4963435;28;20123;-54
2021/07/11 04:27:29;;;;;;;20.13;10.07;;;;;;;;;;4981718;28;20035;-57
2021/07/11 04:29:57;;;;;;;21.23;10.02;;;;;;;;;;4979759;28;20038;-57
2021/07/11 04:32:23;;;;;;;18.73;10.20;;;;;;;;;;4982287;28;20103;-58
2021/07/11 04:34:50;;;;;;;19.30;9.75;;;;;;;;;;4983220;28;20039;-57
2021/07/11 04:37:18;;;;;;;23.80;10.85;;;;;;;;;;4981635;28;20075;-57
2021/07/11 04:39:44;;;;;;;20.60;10.65;;;;;;;;;;4981701;28;20038;-57
2021/07/11 04:42:11;;;;;;;18.13;9.85;;;;;;;;;;4978297;28;20049;-58
2021/07/11 04:44:40;;;;;;;20.85;9.90;;;;;;;;;;4982653;28;20061;-57
2021/07/11 04:47:07;;;;;;;19.30;10.18;;;;;;;;;;4976634;28;20095;-54
2021/07/11 04:49:33;;;;;;;18.70;9.90;;;;;;;;;;4981541;28;20039;-57
2021/07/11 04:52:03;;;;;;;19.50;10.02;;;;;;;;;;4977832;28;20046;-56
2021/07/11 04:54:31;;;;;;;17.25;9.52;;;;;;;;;;4981650;28;20047;-58
2021/07/11 04:56:58;;;;;;;20.58;10.88;;;;;;;;;;4978557;28;20148;-58
2021/07/11 04:59:25;;;;;;;20.25;10.50;;;;;;;;;;4980210;28;20057;-57
2021/07/11 05:01:52;;;;;;;20.67;10.00;;;;;;;;;;4977987;28;20043;-57
2021/07/11 05:04:18;;;;;;;20.48;10.85;;;;;;;;;;4979449;28;20284;-57
2021/07/11 05:06:45;;;;;;;22.77;10.38;;;;;;;;;;4979044;28;20038;-58
2021/07/11 05:09:16;;;;;;;19.02;10.60;;;;;;;;;;4979630;28;20053;-58
2021/07/11 05:11:43;;;;;;;19.48;10.23;;;;;;;;;;4948925;28;20046;-59
2021/07/11 05:14:10;;;;;;;21.60;9.90;;;;;;;;;;4981372;28;20062;-58
2021/07/11 05:16:36;;;;;;;20.42;9.85;;;;;;;;;;4981626;28;20038;-58
2021/07/11 05:19:03;;;;;;;19.35;10.32;;;;;;;;;;4978072;28;20053;-56
2021/07/11 05:21:30;;;;;;;18.80;10.07;;;;;;;;;;4979786;28;20054;-57
2021/07/11 05:23:57;;;;;;;17.73;9.32;;;;;;;;;;4976065;28;20129;-56
2021/07/11 05:26:24;;;;;;;18.55;10.05;;;;;;;;;;4979420;28;20091;-55
2021/07/11 05:28:51;;;;;;;17.75;9.45;;;;;;;;;;4977770;28;20042;-56
2021/07/11 05:31:19;;;;;;;18.73;10.05;;;;;;;;;;4982143;28;20056;-58
2021/07/11 05:33:46;;;;;;;21.70;11.00;;;;;;;;;;4977574;28;20097;-57
2021/07/11 05:36:13;;;;;;;22.17;9.70;;;;;;;;;;4973974;28;20035;-59
2021/07/11 05:38:40;;;;;;;17.50;9.50;;;;;;;;;;4976091;28;20068;-56
2021/07/11 05:41:07;;;;;;;23.98;11.23;;;;;;;;;;4981763;28;20038;-56
2021/07/11 05:43:34;;;;;;;22.92;11.02;;;;;;;;;;4978020;28;20069;-53
2021/07/11 05:46:02;;;;;;;19.60;11.25;;;;;;;;;;4984056;28;20054;-57
2021/07/11 05:48:29;;;;;;;19.75;11.35;;;;;;;;;;4974018;28;20054;-56
2021/07/11 05:50:55;;;;;;;20.05;10.90;;;;;;;;;;4974820;28;20038;-57
2021/07/11 05:53:22;;;;;;;26.92;11.43;;;;;;;;;;4968736;28;20186;-56
2021/07/11 05:55:48;;;;;;;20.55;11.30;;;;;;;;;;4969164;28;20046;-58
2021/07/11 05:58:15;;;;;;;24.70;11.98;;;;;;;;;;4972641;28;20043;-56
2021/07/11 06:00:43;;;;;;;21.20;11.40;;;;;;;;;;4963243;28;20117;-55
2021/07/11 06:03:11;;;;;;;20.23;10.82;;;;;;;;;;4984969;28;20066;-56
2021/07/11 06:05:38;;;;;;;21.98;12.65;;;;;;;;;;4990589;28;20041;-57
2021/07/11 06:08:05;;;;;;;22.85;12.18;;;;;;;;;;4990400;28;20069;-55
2021/07/11 06:10:32;;;;;;;23.05;11.85;;;;;;;;;;4990436;28;20035;-56
2021/07/11 06:12:58;;;;;;;21.98;11.98;;;;;;;;;;4993784;28;20063;-57
2021/07/11 06:15:25;;;;;;;25.38;12.27;;;;;;;;;;4988296;28;20125;-57
2021/07/11 06:17:51;;;;;;;29.65;12.77;;;;;;;;;;4992264;28;20054;-58
2021/07/11 06:20:20;;;;;;;28.35;12.60;;;;;;;;;;4988392;28;20107;-57
2021/07/11 06:22:49;;;;;;;19.90;12.05;;;;;;;;;;4993799;28;20062;-58
2021/07/11 06:25:15;;;;;;;22.88;12.35;;;;;;;;;;4988107;28;20046;-57
2021/07/11 06:27:42;;;;;;;24.23;12.93;;;;;;;;;;4992952;28;20055;-57
2021/07/11 06:30:12;;;;;;;23.73;12.07;;;;;;;;;;4986674;28;20124;-54
2021/07/11 06:32:39;;;;;;;28.40;13.73;;;;;;;;;;4987432;28;20109;-58
2021/07/11 06:35:06;;;;;;;24.60;12.48;;;;;;;;;;4986702;28;20053;-56
2021/07/11 06:37:34;;;;;;;24.35;13.15;;;;;;;;;;4989921;28;20038;-57
2021/07/11 06:40:01;;;;;;;28.00;12.77;;;;;;;;;;4990591;28;20102;-58
2021/07/11 06:42:28;;;;;;;25.33;12.95;;;;;;;;;;4989183;28;20042;-58
2021/07/11 06:44:55;;;;;;;23.52;12.40;;;;;;;;;;4989010;28;20058;-58
2021/07/11 06:47:21;;;;;;;22.73;12.48;;;;;;;;;;4988412;28;20045;-58
2021/07/11 06:49:49;;;;;;;26.52;13.13;;;;;;;;;;4986730;28;20039;-57
2021/07/11 06:52:15;;;;;;;25.00;12.30;;;;;;;;;;4986181;28;20074;-57
2021/07/11 06:54:43;;;;;;;22.60;12.65;;;;;;;;;;4987199;28;20051;-57
2021/07/11 06:57:10;;;;;;;26.63;13.55;;;;;;;;;;4984762;28;20042;-56
2021/07/11 06:59:36;;;;;;;28.48;14.30;;;;;;;;;;4988609;28;20054;-56
2021/07/11 07:02:03;;;;;;;29.60;13.63;;;;;;;;;;4986967;28;20041;-55
2021/07/11 07:04:30;;;;;;;28.60;14.70;;;;;;;;;;4987659;28;20054;-56
2021/07/11 07:06:56;;;;;;;25.95;12.88;;;;;;;;;;4984698;28;20038;-57
2021/07/11 07:09:23;;;;;;;22.60;12.82;;;;;;;;;;4986537;28;20058;-57
2021/07/11 07:11:51;;;;;;;24.90;12.65;;;;;;;;;;4990027;28;20090;-58
2021/07/11 07:14:20;;;;;;;28.30;14.45;;;;;;;;;;4988314;28;20054;-56
2021/07/11 07:16:47;;;;;;;21.05;12.45;;;;;;;;;;4984987;28;20074;-58
2021/07/11 07:19:13;;;;;;;22.33;12.40;;;;;;;;;;4987435;28;20049;-57
2021/07/11 07:21:40;;;;;;;27.23;13.27;;;;;;;;;;4988513;28;20137;-54
2021/07/11 07:24:06;;;;;;;23.40;12.80;;;;;;;;;;4984082;28;20054;-55
2021/07/11 07:26:33;;;;;;;24.52;13.48;;;;;;;;;;4989982;28;20062;-57
2021/07/11 07:29:02;;;;;;;30.30;12.30;;;;;;;;;;4988278;28;20047;-57
2021/07/11 07:31:28;;;;;;;22.38;13.02;;;;;;;;;;4990073;28;20045;-58
2021/07/11 07:33:54;;;;;;;21.83;12.23;;;;;;;;;;4988337;28;20301;-56
2021/07/11 07:36:21;;;;;;;26.13;13.43;;;;;;;;;;4990413;28;20052;-58
2021/07/11 07:38:47;;;;;;;25.08;13.02;;;;;;;;;;4986331;28;20042;-58
2021/07/11 07:41:15;;;;;;;23.63;13.07;;;;;;;;;;4993097;28;20050;-56
2021/07/11 07:43:42;;;;;;;27.52;11.95;;;;;;;;;;4991441;28;20062;-58
2021/07/11 07:46:09;;;;;;;25.67;12.93;;;;;;;;;;4990259;28;20047;-57
2021/07/11 07:48:36;;;;;;;23.15;12.57;;;;;;;;;;4984554;28;20136;-57
2021/07/11 07:51:03;;;;;;;30.10;13.32;;;;;;;;;;4991844;28;20045;-58
2021/07/11 07:53:29;;;;;;;28.27;12.32;;;;;;;;;;4970329;28;20145;-57
2021/07/11 07:55:55;;;;;;;24.25;14.25;;;;;;;;;;4987117;28;20035;-58
2021/07/11 07:58:22;;;;;;;23.73;12.95;;;;;;;;;;4986136;28;20047;-58
2021/07/11 08:00:48;;;;;;;26.63;12.77;;;;;;;;;;4993982;28;20043;-57
2021/07/11 08:03:16;;;;;;;25.23;13.23;;;;;;;;;;4987698;28;20069;-57
2021/07/11 08:05:45;;;;;;;23.48;13.25;;;;;;;;;;4983894;28;20058;-55
2021/07/11 08:08:11;;;;;;;20.73;10.27;;;;;;;;;;4986974;28;20043;-58
2021/07/11 08:10:39;;;;;;;21.50;12.32;;;;;;;;;;4984385;28;20031;-57
2021/07/11 08:13:05;;;;;;;24.13;12.88;;;;;;;;;;4989138;28;20038;-58
2021/07/11 08:15:32;;;;;;;26.60;14.07;;;;;;;;;;4984484;28;20054;-58
2021/07/11 08:17:59;;;;;;;25.23;13.95;;;;;;;;;;4967355;28;20052;-56
2021/07/11 08:20:31;;;;;;;25.38;13.00;;;;;;;;;;4961288;28;20038;-58
2021/07/11 08:22:59;;;;;;;20.33;11.52;;;;;;;;;;4970222;28;20035;-57
2021/07/11 08:25:25;;;;;;;23.38;11.95;;;;;;;;;;4966282;28;20039;-58
2021/07/11 08:27:52;;;;;;;21.25;12.27;;;;;;;;;;4968994;28;20054;-57
2021/07/11 08:30:19;;;;;;;22.77;12.50;;;;;;;;;;4961174;28;20097;-56
2021/07/11 08:32:45;;;;;;;26.75;11.55;;;;;;;;;;4965711;28;20087;-55
2021/07/11 08:35:12;;;;;;;27.73;12.75;;;;;;;;;;4963981;28;20050;-57
2021/07/11 08:37:40;;;;;;;22.23;11.18;;;;;;;;;;4970217;28;20058;-53
2021/07/11 08:40:08;;;;;;;23.17;11.93;;;;;;;;;;4962081;28;20043;-57
2021/07/11 08:42:35;;;;;;;21.65;11.88;;;;;;;;;;4968399;28;20055;-56
2021/07/11 08:45:02;;;;;;;21.42;11.45;;;;;;;;;;4971320;28;20043;-57
2021/07/11 08:47:30;;;;;;;19.88;11.63;;;;;;;;;;4965608;28;20092;-58
2021/07/11 08:49:56;;;;;;;20.85;11.88;;;;;;;;;;4973807;28;20062;-58
2021/07/11 08:52:23;;;;;;;24.30;12.98;;;;;;;;;;4966366;28;20046;-57
2021/07/11 08:54:50;;;;;;;26.13;14.38;;;;;;;;;;4973783;28;20050;-58
2021/07/11 08:57:17;;;;;;;23.67;13.55;;;;;;;;;;4972865;28;20076;-57
2021/07/11 08:59:43;;;;;;;27.48;13.02;;;;;;;;;;4966213;28;20043;-57
2021/07/11 09:02:11;;;;;;;25.35;13.50;;;;;;;;;;4966469;28;20050;-58
2021/07/11 09:04:39;;;;;;;27.45;12.82;;;;;;;;;;4979380;28;20071;-56
2021/07/11 09:07:05;;;;;;;27.00;14.60;;;;;;;;;;4962617;28;20027;-59
2021/07/11 09:09:33;;;;;;;25.80;14.75;;;;;;;;;;4959283;28;20054;-57
2021/07/11 09:12:03;;;;;;;25.33;13.65;;;;;;;;;;4966907;28;20053;-59
2021/07/11 09:35:11;;;;;;;35.88;18.73;;;;;;;;;;5973875;23;20297;-52
2021/07/11 09:37:39;;;;;;;26.55;14.20;;;;;;;;;;5945596;24;20038;-51
2021/07/11 09:40:07;;;;;;;26.85;14.52;;;;;;;;;;5933936;24;20034;-53
2021/07/11 09:42:34;;;;;;;26.98;14.45;;;;;;;;;;5949272;24;20097;-52
2021/07/11 09:45:02;;;;;;;31.92;15.30;;;;;;;;;;5939732;24;20061;-53
2021/07/11 09:47:29;;;;;;;28.92;13.65;;;;;;;;;;5946482;24;20049;-48
2021/07/11 09:49:59;;;;;;;31.33;14.43;;;;;;;;;;5918111;24;20031;-52
2021/07/11 09:52:29;;;;;;;26.38;14.38;;;;;;;;;;5914906;23;20018;-57
2021/07/11 09:54:57;;;;;;;26.17;13.50;;;;;;;;;;5930464;24;20077;-54
2021/07/11 09:57:33;;;;;;;26.48;13.30;;;;;;;;;;5935839;24;20054;-53
2021/07/11 10:00:00;;;;;;;27.73;14.07;;;;;;;;;;5938267;24;20058;-54
2021/07/11 10:02:27;;;;;;;28.90;13.43;;;;;;;;;;5939052;24;20046;-57
2021/07/11 10:04:53;;;;;;;25.13;12.55;;;;;;;;;;5946236;24;20027;-56
2021/07/11 10:07:20;;;;;;;25.83;12.48;;;;;;;;;;5939509;24;20141;-53
2021/07/11 10:09:47;;;;;;;24.55;13.10;;;;;;;;;;5943693;24;20042;-55
2021/07/11 10:12:14;;;;;;;23.20;12.80;;;;;;;;;;5939661;24;20058;-57
2021/07/11 10:14:41;;;;;;;22.20;10.90;;;;;;;;;;5936949;24;20034;-52
2021/07/11 10:17:07;;;;;;;23.05;10.43;;;;;;;;;;5943908;23;20045;-54
2021/07/11 10:19:37;;;;;;;21.48;11.38;;;;;;;;;;5942927;24;20046;-58
2021/07/11 10:22:11;;;;;;;21.65;11.18;;;;;;;;;;5952250;24;20042;-58
2021/07/11 10:24:41;;;;;;;20.67;10.50;;;;;;;;;;5933477;24;20082;-57
2021/07/11 10:27:19;;;;;;;20.17;10.80;;;;;;;;;;5952831;24;20073;-54
2021/07/11 10:29:46;;;;;;;18.90;10.00;;;;;;;;;;5943789;24;20043;-57
2021/07/11 10:32:21;;;;;;;25.63;12.27;;;;;;;;;;5962389;23;20041;-53
2021/07/11 10:34:47;;;;;;;24.65;12.18;;;;;;;;;;5972029;23;20034;-55
2021/07/11 10:37:14;;;;;;;20.42;10.85;;;;;;;;;;5937196;24;20042;-54
2021/07/11 10:39:41;;;;;;;19.63;10.65;;;;;;;;;;5960398;24;20037;-53
2021/07/11 10:42:08;;;;;;;21.52;11.57;;;;;;;;;;5944577;24;20041;-52
2021/07/11 10:44:36;;;;;;;22.17;11.67;;;;;;;;;;5954523;24;20119;-55
2021/07/11 10:47:05;;;;;;;19.58;10.50;;;;;;;;;;5928308;24;20043;-53
2021/07/11 10:49:32;;;;;;;;;;;;;;;;;;5947834;24;20061;-54
2021/07/11 10:51:59;;;;;;;18.92;10.05;;;;;;;;;;5953586;23;19958;-55
2021/07/11 10:54:27;;;;;;;20.38;10.73;;;;;;;;;;5959653;24;20038;-56
2021/07/11 10:56:54;;;;;;;20.00;10.05;;;;;;;;;;5980651;23;20030;-55
2021/07/11 10:59:29;;;;;;;18.88;10.98;;;;;;;;;;5976804;23;20121;-56
2021/07/11 11:01:57;;;;;;;18.50;9.68;;;;;;;;;;5943710;24;20031;-54
2021/07/11 11:04:24;;;;;;;16.23;8.65;;;;;;;;;;5942427;24;20034;-56
2021/07/11 11:06:50;;;;;;;14.32;7.53;;;;;;;;;;5980140;23;20042;-55
2021/07/11 11:09:35;;;;;;;14.93;7.90;;;;;;;;;;5974064;23;20121;-56
2021/07/11 11:12:01;;;;;;;18.48;7.93;;;;;;;;;;5962944;23;20042;-57
2021/07/11 11:14:29;;;;;;;11.38;6.47;;;;;;;;;;5948655;24;20037;-56
2021/07/11 11:16:57;;;;;;;14.93;6.03;;;;;;;;;;5948641;24;20033;-54
2021/07/11 11:19:24;;;;;;;11.15;6.00;;;;;;;;;;5949595;24;20042;-54
2021/07/11 11:21:54;;;;;;;12.32;6.63;;;;;;;;;;5952189;23;20044;-53
2021/07/11 11:24:20;;;;;;;16.35;6.47;;;;;;;;;;5948209;23;20079;-55
2021/07/11 11:26:46;;;;;;;13.32;7.07;;;;;;;;;;5951725;24;20125;-55
2021/07/11 11:29:13;;;;;;;14.85;7.60;;;;;;;;;;5951167;24;20157;-55
2021/07/11 11:31:39;;;;;;;15.38;7.10;;;;;;;;;;5955668;23;20089;-55
2021/07/11 11:34:08;;;;;;;13.50;7.05;;;;;;;;;;5948945;23;20038;-58
2021/07/11 11:36:37;;;;;;;12.82;6.93;;;;;;;;;;5939612;24;20046;-56
2021/07/11 11:39:05;;;;;;;12.60;7.43;;;;;;;;;;5949013;23;20035;-54
2021/07/11 11:41:32;;;;;;;12.85;7.00;;;;;;;;;;5948432;24;20050;-55
2021/07/11 11:44:05;;;;;;;14.35;7.03;;;;;;;;;;5947131;24;20066;-55
2021/07/11 11:46:32;;;;;;;13.18;6.40;;;;;;;;;;5951986;24;20038;-52
2021/07/11 11:48:59;;;;;;;11.63;5.72;;;;;;;;;;5952516;24;20155;-55
2021/07/11 11:51:27;;;;;;;9.35;5.00;;;;;;;;;;5944727;24;20039;-57
2021/07/11 11:53:54;;;;;;;;;;;;;;;;;;5953505;23;20057;-57
2021/07/11 11:56:20;;;;;;;10.38;6.07;;;;;;;;;;5937696;24;19922;-56
2021/07/11 11:58:47;;;;;;;13.43;6.10;;;;;;;;;;5946920;24;20054;-54
2021/07/11 12:01:18;;;;;;;13.60;7.60;;;;;;;;;;5939613;23;20035;-57
2021/07/11 12:03:45;;;;;;;10.48;6.47;;;;;;;;;;5940348;24;20065;-57
2021/07/11 12:06:13;;;;;;;12.13;6.70;;;;;;;;;;5953811;23;20062;-56
2021/07/11 12:08:42;;;;;;;14.88;7.40;;;;;;;;;;5945520;24;20038;-58
2021/07/11 12:11:09;;;;;;;11.45;6.07;;;;;;;;;;5945588;24;20288;-56
2021/07/11 12:13:36;;;;;;;10.82;5.57;;;;;;;;;;5942556;24;20026;-53
2021/07/11 12:16:07;;;;;;;12.30;6.40;;;;;;;;;;5930648;24;20030;-56
2021/07/11 12:18:43;;;;;;;11.27;5.68;;;;;;;;;;5951862;23;20023;-60
2021/07/11 12:21:10;;;;;;;9.70;4.75;;;;;;;;;;5940572;24;20027;-58
2021/07/11 12:23:36;;;;;;;10.75;5.88;;;;;;;;;;5939918;24;20039;-56
2021/07/11 12:26:06;;;;;;;10.70;5.82;;;;;;;;;;5949723;24;20049;-57
2021/07/11 12:28:35;;;;;;;14.15;8.20;;;;;;;;;;5946542;24;20047;-57
2021/07/11 12:31:01;;;;;;;13.75;7.68;;;;;;;;;;5944686;24;20050;-57
2021/07/11 12:33:29;;;;;;;11.90;5.93;;;;;;;;;;5940269;24;20045;-56
2021/07/11 12:35:59;;;;;;;9.27;5.00;;;;;;;;;;5951612;24;20034;-58
2021/07/11 12:38:29;;;;;;;12.73;5.50;;;;;;;;;;5947771;24;20325;-55
2021/07/11 12:40:56;;;;;;;9.13;5.55;;;;;;;;;;5936689;24;20034;-56
2021/07/11 12:43:31;;;;;;;10.18;4.57;;;;;;;;;;5940034;23;20098;-58
2021/07/11 12:45:59;;;;;;;8.20;4.88;;;;;;;;;;5941398;23;20038;-57
2021/07/11 12:48:34;;;;;;;8.60;4.80;;;;;;;;;;5944145;24;20046;-57
2021/07/11 12:51:11;;;;;;;11.10;5.07;;;;;;;;;;5945696;24;20039;-59
2021/07/11 12:53:37;;;;;;;11.10;4.50;;;;;;;;;;5938037;24;20031;-57
2021/07/11 12:56:05;;;;;;;11.75;4.93;;;;;;;;;;5947487;23;20038;-56
2021/07/11 12:58:37;;;;;;;9.25;4.53;;;;;;;;;;5942956;23;20050;-55
2021/07/11 13:01:04;;;;;;;15.05;7.93;;;;;;;;;;5945744;23;20034;-56
2021/07/11 13:03:30;;;;;;;22.67;8.40;;;;;;;;;;5951981;24;20231;-56
2021/07/11 13:05:58;;;;;;;12.88;6.45;;;;;;;;;;5944521;23;20031;-58
2021/07/11 13:08:25;;;;;;;11.32;6.10;;;;;;;;;;5953997;23;20046;-54
2021/07/11 13:10:51;;;;;;;12.00;5.53;;;;;;;;;;5951042;24;20046;-57
2021/07/11 13:13:18;;;;;;;9.18;5.43;;;;;;;;;;5944582;24;20046;-58
2021/07/11 13:15:48;;;;;;;13.10;5.40;;;;;;;;;;5951915;24;20054;-56
2021/07/11 13:18:14;;;;;;;14.02;7.13;;;;;;;;;;5943280;24;20039;-56
2021/07/11 13:20:41;;;;;;;12.30;6.72;;;;;;;;;;5944551;24;20034;-56
2021/07/11 13:23:08;;;;;;;12.85;4.95;;;;;;;;;;5948418;24;20042;-54
2021/07/11 13:25:34;;;;;;;7.70;4.45;;;;;;;;;;5945803;24;20110;-57
2021/07/11 13:28:01;;;;;;;7.45;4.05;;;;;;;;;;5947316;24;20153;-58
2021/07/11 13:30:30;;;;;;;10.18;4.68;;;;;;;;;;5942688;24;20053;-57
2021/07/11 13:32:58;;;;;;;15.68;7.47;;;;;;;;;;5949559;23;20090;-57
2021/07/11 13:35:24;;;;;;;;;;;;;;;;;;5965592;23;20050;-57
2021/07/11 13:37:51;;;;;;;13.25;4.25;;;;;;;;;;5950175;24;19999;-58
2021/07/11 13:40:19;;;;;;;10.30;4.60;;;;;;;;;;5950023;24;20034;-58
2021/07/11 13:42:46;;;;;;;8.52;4.75;;;;;;;;;;5978024;23;20272;-58
2021/07/11 13:45:14;;;;;;;11.50;5.65;;;;;;;;;;5946777;24;20055;-55
2021/07/11 13:47:41;;;;;;;11.27;5.53;;;;;;;;;;5979422;23;20050;-59
2021/07/11 13:50:11;;;;;;;12.73;6.93;;;;;;;;;;5938905;24;20030;-55
2021/07/11 13:52:38;;;;;;;13.48;7.00;;;;;;;;;;5954195;24;20054;-56
2021/07/11 13:55:08;;;;;;;12.52;6.90;;;;;;;;;;5966595;23;20083;-57
2021/07/11 13:57:42;;;;;;;12.13;5.70;;;;;;;;;;5956033;23;20119;-57
2021/07/11 14:00:14;;;;;;;11.57;5.75;;;;;;;;;;5946383;24;20042;-57
2021/07/11 14:02:40;;;;;;;11.23;6.20;;;;;;;;;;5982352;24;20034;-57
2021/07/11 14:05:07;;;;;;;10.65;4.78;;;;;;;;;;5972394;23;20026;-57
2021/07/11 14:07:35;;;;;;;8.00;3.90;;;;;;;;;;5948563;24;20054;-56
2021/07/11 14:10:03;;;;;;;6.30;3.20;;;;;;;;;;5948218;24;20042;-58
2021/07/11 14:12:30;;;;;;;8.07;3.47;;;;;;;;;;5970593;24;20078;-59
2021/07/11 14:14:57;;;;;;;10.02;3.65;;;;;;;;;;5973206;24;20046;-58
2021/07/11 14:17:30;;;;;;;5.93;3.00;;;;;;;;;;5955168;24;20050;-57
2021/07/11 14:19:57;;;;;;;5.40;3.30;;;;;;;;;;5942762;24;20030;-58
2021/07/11 14:22:24;;;;;;;6.38;3.15;;;;;;;;;;5945634;24;20050;-54
2021/07/11 14:24:53;;;;;;;5.32;2.88;;;;;;;;;;5939149;24;20041;-58
2021/07/11 14:27:20;;;;;;;5.88;2.70;;;;;;;;;;5946296;24;20038;-56
2021/07/11 14:29:46;;;;;;;6.45;2.97;;;;;;;;;;5969355;23;20042;-57
2021/07/11 14:32:13;;;;;;;5.82;2.95;;;;;;;;;;5945044;24;20053;-55
2021/07/11 14:34:40;;;;;;;6.40;3.00;;;;;;;;;;5956678;24;20052;-57
2021/07/11 14:37:08;;;;;;;5.13;2.73;;;;;;;;;;5943755;24;20034;-56
2021/07/11 14:39:35;;;;;;;8.35;3.28;;;;;;;;;;5948308;24;20057;-54
2021/07/11 14:42:04;;;;;;;7.50;3.38;;;;;;;;;;5974796;23;20115;-57
2021/07/11 14:44:30;;;;;;;7.30;3.60;;;;;;;;;;5955162;24;20022;-57
2021/07/11 14:46:57;;;;;;;8.48;4.47;;;;;;;;;;5948089;24;20058;-56
2021/07/11 14:49:24;;;;;;;5.88;3.25;;;;;;;;;;5971565;23;20151;-57
2021/07/11 14:51:50;;;;;;;6.68;3.65;;;;;;;;;;5907964;24;20031;-57